Time;durP1;ratioP1;P1;durP2;ratioP2;P2;SDS_P1;SDS_P2;PMS_P1;PMS_P2;Temp;Humidity;BMP_temperature;BMP_pressure;BME280_temperature;BME280_humidity;BME280_pressure;Samples;Min_cycle;Max_cycle;Signal;HPM_P1;HPM_P2
2023/01/26 00:00:06;;;;;;;33.20;12.88;;;;;;;;;;5065463;28;20052;-92
2023/01/26 00:02:40;;;;;;;35.38;13.60;;;0.80;99.90;;;;;;5064895;28;20044;-91
2023/01/26 00:05:09;;;;;;;34.60;13.45;;;;;;;;;;4994880;28;20549;-92
2023/01/26 00:07:44;;;;;;;34.00;14.15;;;;;;;;;;5009001;28;20045;-92
2023/01/26 00:10:15;;;;;;;31.10;12.95;;;0.70;99.90;;;;;;5015521;28;20049;-94
2023/01/26 00:12:50;;;;;;;30.83;13.13;;;0.70;99.90;;;;;;5011304;28;20107;-93
2023/01/26 00:15:40;;;;;;;32.45;13.55;;;0.70;99.90;;;;;;5000239;28;20657;-94
2023/01/26 00:18:18;;;;;;;29.83;12.18;;;;;;;;;;5007420;28;20041;-93
2023/01/26 00:20:59;;;;;;;31.80;12.45;;;0.70;99.90;;;;;;4986812;28;20131;-93
2023/01/26 00:23:36;;;;;;;33.40;13.20;;;0.70;99.90;;;;;;5017326;28;20087;-92
2023/01/26 00:26:05;;;;;;;35.55;12.90;;;;;;;;;;5009965;28;20181;-93
2023/01/26 00:28:32;;;;;;;33.00;13.15;;;0.70;99.90;;;;;;5010594;28;20044;-93
2023/01/26 00:31:10;;;;;;;30.92;12.55;;;0.70;99.90;;;;;;4982989;28;20059;-92
2023/01/26 00:33:41;;;;;;;30.75;12.57;;;0.70;99.90;;;;;;5026708;28;20147;-92
2023/01/26 00:36:14;;;;;;;31.35;12.23;;;0.80;99.90;;;;;;5048485;28;20051;-93
2023/01/26 00:38:40;;;;;;;34.20;12.43;;;0.70;99.90;;;;;;5074650;28;20039;-93
2023/01/26 00:42:05;;;;;;;30.08;12.02;;;;;;;;;;5082442;28;20039;-92
2023/01/26 00:44:04;;;;;;;28.65;11.77;;;;;;;;;;5095633;28;20055;-90
2023/01/26 00:46:33;;;;;;;30.67;12.82;;;0.70;99.90;;;;;;5083834;28;20124;-93
2023/01/26 00:48:59;;;;;;;29.83;12.18;;;0.70;99.90;;;;;;5078613;28;20039;-92
2023/01/26 00:51:28;;;;;;;28.98;11.30;;;0.80;99.90;;;;;;5076421;28;20044;-92
2023/01/26 00:53:54;;;;;;;31.73;12.65;;;;;;;;;;5067255;28;20032;-92
2023/01/26 00:56:20;;;;;;;30.92;12.55;;;;;;;;;;5077637;28;20054;-94
2023/01/26 00:58:48;;;;;;;29.40;11.60;;;1.50;99.90;;;;;;5078535;28;20040;-94
2023/01/26 01:01:14;;;;;;;33.85;13.80;;;0.80;99.90;;;;;;5066286;28;20044;-94
2023/01/26 01:03:41;;;;;;;30.20;11.57;;;;;;;;;;5079783;28;20046;-93
2023/01/26 01:06:06;;;;;;;30.42;12.40;;;0.80;99.90;;;;;;5081533;28;20139;-92
2023/01/26 01:08:45;;;;;;;31.85;12.75;;;0.80;99.90;;;;;;5084537;28;20110;-92
2023/01/26 01:11:11;;;;;;;30.33;11.23;;;0.80;99.90;;;;;;5082021;28;20089;-92
2023/01/26 01:13:38;;;;;;;33.47;12.57;;;0.80;99.90;;;;;;5102026;28;20051;-92
2023/01/26 01:16:05;;;;;;;28.70;11.13;;;0.80;99.90;;;;;;5078734;28;20036;-90
2023/01/26 01:18:34;;;;;;;30.05;12.10;;;0.80;99.90;;;;;;5073750;28;20027;-92
2023/01/26 01:21:11;;;;;;;32.83;12.05;;;0.80;99.90;;;;;;5086421;28;20097;-92
2023/01/26 01:23:40;;;;;;;31.38;12.38;;;;;;;;;;5088692;28;20608;-90
2023/01/26 01:26:06;;;;;;;32.42;11.90;;;0.80;99.90;;;;;;5088856;28;20500;-91
2023/01/26 01:28:33;;;;;;;39.28;13.23;;;0.80;99.90;;;;;;5086306;28;20028;-92
2023/01/26 01:30:59;;;;;;;33.70;12.27;;;2.30;99.90;;;;;;5072607;28;20060;-92
2023/01/26 01:33:31;;;;;;;35.92;13.18;;;0.80;99.90;;;;;;5087469;28;20043;-93
2023/01/26 01:36:08;;;;;;;34.85;13.13;;;0.80;99.90;;;;;;5083667;28;20546;-91
2023/01/26 01:38:34;;;;;;;31.35;12.57;;;0.90;99.90;;;;;;5080323;28;20080;-94
2023/01/26 01:41:00;;;;;;;32.45;11.68;;;0.80;99.90;;;;;;5083533;28;20040;-92
2023/01/26 01:43:27;;;;;;;36.95;13.63;;;0.80;99.90;;;;;;5089126;28;20039;-91
2023/01/26 01:45:53;;;;;;;33.33;11.48;;;0.80;99.90;;;;;;5090749;28;20046;-92
2023/01/26 01:48:28;;;;;;;34.03;12.25;;;0.90;99.90;;;;;;5084892;28;20075;-92
2023/01/26 01:50:58;;;;;;;30.88;11.55;;;-0.60;99.90;;;;;;5080482;28;20476;-92
2023/01/26 01:53:36;;;;;;;32.72;12.18;;;;;;;;;;5079044;28;20035;-92
2023/01/26 01:56:20;;;;;;;32.05;12.07;;;0.90;99.90;;;;;;5076795;28;20039;-95
2023/01/26 01:58:50;;;;;;;28.90;12.20;;;0.90;99.90;;;;;;5078325;28;20046;-92
2023/01/26 02:01:16;;;;;;;29.42;12.35;;;;;;;;;;5084960;28;20936;-92
2023/01/26 02:03:46;;;;;;;30.98;12.02;;;0.90;99.90;;;;;;5085045;28;20055;-93
2023/01/26 02:06:44;;;;;;;28.98;11.00;;;0.90;99.90;;;;;;5084897;28;20078;-90
2023/01/26 02:12:15;;;;;;;27.20;10.73;;;0.80;99.90;;;;;;5098189;28;20040;-91
2023/01/26 02:14:43;;;;;;;25.60;10.73;;;;;;;;;;5082494;28;20028;-93
2023/01/26 02:17:09;;;;;;;24.17;10.02;;;0.90;99.90;;;;;;5072956;28;20032;-92
2023/01/26 02:19:58;;;;;;;27.73;10.70;;;0.90;99.90;;;;;;5071574;28;20032;-91
2023/01/26 02:22:41;;;;;;;29.70;11.32;;;1.00;99.90;;;;;;5078566;28;20071;-92
2023/01/26 02:25:18;;;;;;;26.90;10.68;;;1.00;99.90;;;;;;5081899;28;20219;-92
2023/01/26 02:27:48;;;;;;;28.70;11.40;;;1.00;99.90;;;;;;5082006;28;20035;-93
2023/01/26 02:30:14;;;;;;;31.80;11.60;;;1.00;99.90;;;;;;5073245;28;20072;-93
2023/01/26 02:32:40;;;;;;;25.95;11.70;;;0.90;99.90;;;;;;5082632;28;20073;-90
2023/01/26 02:35:06;;;;;;;30.13;11.50;;;1.00;99.90;;;;;;5080158;28;20031;-94
2023/01/26 02:37:35;;;;;;;31.48;11.48;;;;;;;;;;5080545;28;20035;-93
2023/01/26 02:40:44;;;;;;;26.67;10.85;;;1.10;99.90;;;;;;5085141;28;20811;-91
2023/01/26 02:43:33;;;;;;;29.27;11.90;;;1.10;99.90;;;;;;5096749;28;20086;-91
2023/01/26 02:46:02;;;;;;;27.48;10.63;;;1.10;99.90;;;;;;5084264;28;20035;-91
2023/01/26 02:51:23;;;;;;;26.23;10.30;;;1.10;99.90;;;;;;5103908;28;20472;-91
2023/01/26 02:57:05;;;;;;;26.50;11.38;;;1.10;99.90;;;;;;5083500;28;20154;-91
2023/01/26 02:59:39;;;;;;;30.23;11.25;;;2.90;99.90;;;;;;5070696;28;20115;-92
2023/01/26 03:02:08;;;;;;;26.65;11.10;;;;;;;;;;5067825;28;20500;-91
2023/01/26 03:04:46;;;;;;;30.95;11.32;;;1.10;99.90;;;;;;5087313;28;20052;-91
2023/01/26 03:07:21;;;;;;;24.58;10.45;;;1.50;99.90;;;;;;5085534;28;20040;-94
2023/01/26 03:09:53;;;;;;;30.60;11.60;;;1.20;99.90;;;;;;5074261;28;20087;-90
2023/01/26 03:12:19;;;;;;;28.95;11.07;;;1.20;99.90;;;;;;5071107;28;20040;-91
2023/01/26 03:17:49;;;;;;;31.33;11.95;;;;;;;;;;5074491;28;20049;-90
2023/01/26 03:28:31;;;;;;;27.95;10.77;;;1.20;99.90;;;;;;5094945;28;20535;-91
2023/01/26 03:31:02;;;;;;;29.75;11.18;;;1.20;99.90;;;;;;5066581;28;20039;-91
2023/01/26 03:33:34;;;;;;;29.42;11.18;;;1.20;99.90;;;;;;5080860;28;20089;-91
2023/01/26 03:36:04;;;;;;;27.67;11.35;;;1.20;99.90;;;;;;5077385;28;20503;-91
2023/01/26 03:38:33;;;;;;;27.25;10.85;;;;;;;;;;5069852;28;20071;-92
2023/01/26 03:57:28;;;;;;;25.00;10.07;;;2.90;99.90;;;;;;5083375;28;20070;-92
2023/01/26 03:59:53;;;;;;;25.40;9.75;;;1.30;99.90;;;;;;5095019;28;20027;-91
2023/01/26 04:10:36;;;;;;;27.73;10.75;;;2.60;99.90;;;;;;5076847;28;20556;-90
2023/01/26 04:21:34;;;;;;;27.58;10.02;;;1.40;99.90;;;;;;5082520;27;20412;-90
2023/01/26 04:24:12;;;;;;;24.52;10.65;;;1.40;99.90;;;;;;5080780;28;20031;-90
2023/01/26 04:26:42;;;;;;;29.70;10.73;;;2.90;99.90;;;;;;5051277;28;20061;-89
2023/01/26 04:29:17;;;;;;;25.83;10.10;;;1.50;99.90;;;;;;5097637;28;20067;-90
2023/01/26 04:31:46;;;;;;;25.50;10.30;;;1.50;99.90;;;;;;5064507;28;20515;-88
2023/01/26 04:34:15;;;;;;;26.48;9.95;;;1.50;99.90;;;;;;5078215;28;20031;-89
2023/01/26 04:36:42;;;;;;;27.20;10.65;;;;;;;;;;5073790;28;20465;-90
2023/01/26 04:39:14;;;;;;;23.42;10.50;;;1.50;99.90;;;;;;5098084;28;20111;-89
2023/01/26 04:41:40;;;;;;;27.02;10.60;;;;;;;;;;5079939;28;20036;-89
2023/01/26 04:44:07;;;;;;;26.13;11.05;;;1.50;99.90;;;;;;5077915;28;20524;-91
2023/01/26 04:46:33;;;;;;;27.27;11.55;;;1.50;99.90;;;;;;5067092;28;20550;-89
2023/01/26 04:48:58;;;;;;;32.58;11.27;;;1.50;99.90;;;;;;5083660;28;20040;-90
2023/01/26 04:51:27;;;;;;;24.48;10.07;;;1.50;99.90;;;;;;5067159;28;20468;-90
2023/01/26 04:53:53;;;;;;;26.40;10.57;;;1.50;99.90;;;;;;5096463;28;20044;-89
2023/01/26 04:56:23;;;;;;;24.10;9.70;;;1.50;99.90;;;;;;5080681;28;20490;-89
2023/01/26 04:58:49;;;;;;;26.35;10.75;;;1.50;99.90;;;;;;5092116;28;20096;-88
2023/01/26 05:01:16;;;;;;;29.40;11.48;;;1.50;99.90;;;;;;5081233;28;20078;-89
2023/01/26 05:03:41;;;;;;;27.40;10.63;;;1.50;99.90;;;;;;5075438;28;20059;-88
2023/01/26 05:06:07;;;;;;;29.63;11.05;;;1.60;99.90;;;;;;5064273;28;20500;-88
2023/01/26 05:08:33;;;;;;;32.33;12.35;;;1.60;99.90;;;;;;5063670;28;20040;-89
2023/01/26 05:11:00;;;;;;;28.50;11.75;;;;;;;;;;5079458;28;20104;-90
2023/01/26 05:13:26;;;;;;;29.85;11.63;;;1.70;99.90;;;;;;5077209;28;20121;-89
2023/01/26 05:15:52;;;;;;;26.17;10.40;;;3.30;99.90;;;;;;5060211;28;20033;-88
2023/01/26 05:18:17;;;;;;;26.52;11.02;;;1.70;99.90;;;;;;5064599;28;20055;-87
2023/01/26 05:20:43;;;;;;;28.23;11.57;;;1.70;99.90;;;;;;5080096;28;20032;-89
2023/01/26 05:23:09;;;;;;;33.15;12.00;;;1.60;99.90;;;;;;5049392;28;20378;-90
2023/01/26 05:25:35;;;;;;;30.38;11.43;;;1.80;99.90;;;;;;5075787;28;21114;-88
2023/01/26 05:28:00;;;;;;;28.38;10.60;;;1.70;99.90;;;;;;5066203;28;20043;-90
2023/01/26 05:30:27;;;;;;;36.20;12.10;;;;;;;;;;5081576;28;20044;-89
2023/01/26 05:32:52;;;;;;;28.48;11.32;;;1.80;99.90;;;;;;5094460;28;20040;-88
2023/01/26 05:35:18;;;;;;;34.00;12.80;;;1.80;99.90;;;;;;5049741;28;20097;-90
2023/01/26 05:37:44;;;;;;;35.67;12.93;;;0.10;99.90;;;;;;5062507;28;20051;-90
2023/01/26 05:40:11;;;;;;;33.10;12.88;;;1.80;99.90;;;;;;5073195;28;20123;-89
2023/01/26 05:42:37;;;;;;;32.28;12.52;;;1.80;99.90;;;;;;5092782;28;20101;-89
2023/01/26 05:45:04;;;;;;;31.80;11.98;;;1.90;99.90;;;;;;5037036;28;20039;-89
2023/01/26 05:47:30;;;;;;;37.95;13.82;;;1.90;99.90;;;;;;5069423;28;20035;-88
2023/01/26 05:49:55;;;;;;;43.25;14.10;;;3.30;99.90;;;;;;5063566;28;20108;-87
2023/01/26 05:52:21;;;;;;;40.80;13.85;;;3.70;99.90;;;;;;5069521;28;20032;-87
2023/01/26 05:54:47;;;;;;;35.38;13.23;;;1.90;99.90;;;;;;5083652;28;20112;-88
2023/01/26 05:57:15;;;;;;;38.33;15.90;;;1.90;99.90;;;;;;5089172;28;20492;-88
2023/01/26 05:59:41;;;;;;;53.00;17.48;;;2.40;99.90;;;;;;5099169;27;20223;-88
2023/01/26 06:02:10;;;;;;;41.20;16.48;;;1.90;99.90;;;;;;5076257;28;20122;-90
2023/01/26 06:04:36;;;;;;;49.63;17.33;;;3.00;99.90;;;;;;5083393;28;20062;-88
2023/01/26 06:07:05;;;;;;;49.67;15.82;;;2.00;99.90;;;;;;5093133;28;20454;-88
2023/01/26 06:09:31;;;;;;;39.28;13.65;;;2.00;99.90;;;;;;5097794;28;20047;-89
2023/01/26 06:11:57;;;;;;;40.20;14.07;;;2.80;99.90;;;;;;5095485;27;20198;-88
2023/01/26 06:14:22;;;;;;;47.20;14.45;;;2.00;99.90;;;;;;5104112;28;20182;-90
2023/01/26 06:16:51;;;;;;;47.13;15.07;;;2.00;99.90;;;;;;5079834;28;20101;-90
2023/01/26 06:19:16;;;;;;;40.05;13.05;;;1.80;99.90;;;;;;5073532;28;20047;-89
2023/01/26 06:21:42;;;;;;;46.25;15.00;;;2.00;99.90;;;;;;5064949;28;20089;-90
2023/01/26 06:24:08;;;;;;;39.80;13.93;;;;;;;;;;5050427;28;20050;-89
2023/01/26 06:26:34;;;;;;;45.67;14.23;;;2.00;99.90;;;;;;5060537;28;20042;-88
2023/01/26 06:29:00;;;;;;;39.53;13.95;;;2.00;99.90;;;;;;5077030;27;20039;-90
2023/01/26 06:31:28;;;;;;;48.60;15.30;;;1.90;99.90;;;;;;5073957;28;20048;-88
2023/01/26 06:33:54;;;;;;;57.78;15.90;;;2.10;99.90;;;;;;5072337;27;20032;-90
2023/01/26 06:36:20;;;;;;;51.58;15.45;;;2.10;99.90;;;;;;5061356;28;20523;-89
2023/01/26 06:38:51;;;;;;;45.72;13.77;;;2.40;99.90;;;;;;5078198;28;20032;-89
2023/01/26 06:41:17;;;;;;;43.28;13.73;;;2.20;99.90;;;;;;5075414;28;20564;-90
2023/01/26 06:43:45;;;;;;;59.03;14.75;;;2.20;99.90;;;;;;5075330;28;20181;-89
2023/01/26 06:46:12;;;;;;;50.00;14.02;;;3.60;99.90;;;;;;5083591;28;20589;-90
2023/01/26 06:48:38;;;;;;;66.25;14.98;;;2.20;99.90;;;;;;5081128;28;20086;-89
2023/01/26 06:51:19;;;;;;;64.10;15.00;;;2.20;99.90;;;;;;5068904;28;20063;-90
2023/01/26 06:53:51;;;;;;;68.72;14.55;;;2.20;99.90;;;;;;5082345;28;20050;-89
2023/01/26 06:56:16;;;;;;;66.88;14.30;;;3.90;99.90;;;;;;5076415;28;20040;-88
2023/01/26 06:58:42;;;;;;;73.15;15.18;;;2.30;99.90;;;;;;5070735;28;20114;-87
2023/01/26 07:01:16;;;;;;;62.50;14.23;;;2.30;99.90;;;;;;5082435;28;20051;-89
2023/01/26 07:03:42;;;;;;;54.28;13.38;;;;;;;;;;5080343;28;20035;-90
2023/01/26 07:06:10;;;;;;;48.63;14.85;;;2.30;99.90;;;;;;5085963;28;20631;-88
2023/01/26 07:08:36;;;;;;;47.78;15.20;;;2.30;99.90;;;;;;5077490;28;20054;-89
2023/01/26 07:11:02;;;;;;;48.38;13.65;;;3.90;99.90;;;;;;5074059;28;20130;-89
2023/01/26 07:13:28;;;;;;;48.55;13.55;;;2.40;99.90;;;;;;5058295;28;20116;-89
2023/01/26 07:16:23;;;;;;;48.67;12.68;;;4.40;99.90;;;;;;5075616;28;20039;-87
2023/01/26 07:18:54;;;;;;;45.42;12.88;;;2.40;99.90;;;;;;5097482;27;20028;-88
2023/01/26 07:21:21;;;;;;;39.20;11.60;;;;;;;;;;5076355;28;20686;-87
2023/01/26 07:23:49;;;;;;;40.95;12.43;;;2.30;99.90;;;;;;5092732;28;20036;-88
2023/01/26 07:26:15;;;;;;;47.80;10.77;;;2.20;99.90;;;;;;5082574;27;20038;-88
2023/01/26 07:28:41;;;;;;;46.47;9.60;;;2.20;99.90;;;;;;5083259;28;20456;-86
2023/01/26 07:31:07;;;;;;;38.50;9.18;;;1.60;99.90;;;;;;5083224;28;20511;-88
2023/01/26 07:33:41;;;;;;;39.22;7.20;;;2.20;99.90;;;;;;5077488;28;20123;-89
2023/01/26 07:36:29;;;;;;;40.10;7.50;;;2.40;99.90;;;;;;5090176;28;20487;-89
2023/01/26 07:38:54;;;;;;;35.47;6.25;;;2.40;99.90;;;;;;5075326;28;20142;-86
2023/01/26 07:41:20;;;;;;;33.55;6.55;;;2.50;99.90;;;;;;5072437;28;20043;-87
2023/01/26 07:43:48;;;;;;;34.83;6.32;;;;;;;;;;5084866;28;20040;-86
2023/01/26 07:46:29;;;;;;;41.80;6.15;;;2.50;99.90;;;;;;5086587;28;20067;-89
2023/01/26 07:49:06;;;;;;;37.97;6.28;;;2.70;99.90;;;;;;5081661;28;20062;-88
2023/01/26 07:51:35;;;;;;;41.63;6.05;;;;;;;;;;5046510;28;20635;-89
2023/01/26 07:54:28;;;;;;;40.53;5.40;;;;;;;;;;5080276;28;20039;-90
2023/01/26 07:56:57;;;;;;;40.30;5.17;;;;;;;;;;5069139;28;20056;-86
2023/01/26 07:59:23;;;;;;;37.25;5.10;;;2.70;99.90;;;;;;5078631;28;20321;-88
2023/01/26 08:01:49;;;;;;;37.05;5.18;;;2.60;99.90;;;;;;5090573;28;20629;-90
2023/01/26 08:04:18;;;;;;;37.60;5.47;;;2.70;99.90;;;;;;5074673;28;20480;-88
2023/01/26 08:06:44;;;;;;;38.80;5.60;;;2.70;99.90;;;;;;5091834;28;20372;-90
2023/01/26 08:09:13;;;;;;;35.20;5.40;;;;;;;;;;5076092;28;20709;-90
2023/01/26 08:11:39;;;;;;;38.08;5.65;;;2.70;99.90;;;;;;5072472;28;20036;-88
2023/01/26 08:14:04;;;;;;;39.15;4.72;;;2.70;99.90;;;;;;5067378;28;20110;-90
2023/01/26 08:16:30;;;;;;;39.47;5.18;;;2.70;99.90;;;;;;5073700;28;20040;-90
2023/01/26 08:18:59;;;;;;;45.30;5.93;;;;;;;;;;5070110;28;20067;-88
2023/01/26 08:21:25;;;;;;;37.80;5.15;;;2.20;99.90;;;;;;5063333;28;20039;-87
2023/01/26 08:23:51;;;;;;;43.67;5.03;;;2.60;99.90;;;;;;5097619;28;20059;-88
2023/01/26 08:26:26;;;;;;;31.60;4.45;;;2.60;99.90;;;;;;5067283;28;20123;-89
2023/01/26 08:29:03;;;;;;;41.95;5.55;;;2.60;99.90;;;;;;5076586;28;20040;-88
2023/01/26 08:31:34;;;;;;;36.40;5.85;;;2.60;99.90;;;;;;5074278;28;20044;-86
2023/01/26 08:34:03;;;;;;;38.25;6.47;;;2.60;99.90;;;;;;5078239;28;20065;-89
2023/01/26 08:36:32;;;;;;;33.67;5.75;;;2.70;99.90;;;;;;5090467;28;20036;-88
2023/01/26 08:38:58;;;;;;;40.85;5.97;;;;;;;;;;5077182;28;20185;-88
2023/01/26 08:41:26;;;;;;;32.70;5.63;;;;;;;;;;5093345;28;20044;-89
2023/01/26 08:43:52;;;;;;;36.50;5.10;;;2.90;99.90;;;;;;5075215;28;20071;-85
2023/01/26 08:46:18;;;;;;;39.92;6.10;;;2.90;99.90;;;;;;5064333;28;20079;-86
2023/01/26 08:48:44;;;;;;;35.05;4.47;;;3.00;99.90;;;;;;5065976;28;20054;-87
2023/01/26 08:51:12;;;;;;;30.13;4.80;;;3.20;99.90;;;;;;5088440;28;20028;-89
2023/01/26 08:53:47;;;;;;;31.67;5.40;;;1.20;99.90;;;;;;5078184;28;20043;-88
2023/01/26 08:56:16;;;;;;;40.90;6.40;;;3.20;99.90;;;;;;5065471;28;20051;-87
2023/01/26 08:58:45;;;;;;;40.13;5.88;;;3.30;99.90;;;;;;5045800;28;20040;-87
2023/01/26 09:01:15;;;;;;;34.60;5.32;;;4.40;99.90;;;;;;5074625;28;20036;-87
2023/01/26 09:03:43;;;;;;;37.30;5.53;;;3.50;99.90;;;;;;5079049;28;20047;-87
2023/01/26 09:06:13;;;;;;;33.67;5.07;;;5.50;99.90;;;;;;5069452;28;20060;-88
2023/01/26 09:08:39;;;;;;;37.00;5.60;;;3.60;99.90;;;;;;5070035;28;20043;-88
2023/01/26 09:11:06;;;;;;;38.97;5.53;;;;;;;;;;5080164;28;20054;-87
2023/01/26 09:13:31;;;;;;;31.55;5.70;;;3.80;99.90;;;;;;5075640;28;20039;-85
2023/01/26 09:15:58;;;;;;;39.45;5.80;;;3.80;99.90;;;;;;5077337;28;20506;-88
2023/01/26 09:18:23;;;;;;;33.55;6.20;;;3.90;99.90;;;;;;5073595;28;20036;-86
2023/01/26 09:20:54;;;;;;;39.90;5.25;;;4.00;99.90;;;;;;5075733;28;20040;-88
2023/01/26 09:23:20;;;;;;;33.08;5.40;;;5.20;99.90;;;;;;5054116;28;20407;-89
2023/01/26 09:25:52;;;;;;;31.63;5.28;;;5.70;99.90;;;;;;5057997;28;20067;-87
2023/01/26 09:28:17;;;;;;;34.10;6.10;;;4.20;99.90;;;;;;5086475;28;20047;-88
2023/01/26 09:30:43;;;;;;;31.70;4.82;;;4.70;99.90;;;;;;5071715;28;20039;-87
2023/01/26 09:33:09;;;;;;;35.45;6.20;;;6.20;99.90;;;;;;5093471;27;20046;-87
2023/01/26 09:35:34;;;;;;;35.28;5.18;;;4.40;99.90;;;;;;5084899;28;20059;-85
2023/01/26 09:38:00;;;;;;;35.88;5.78;;;4.50;99.90;;;;;;5103354;28;20039;-86
2023/01/26 09:40:35;;;;;;;32.85;5.03;;;4.60;99.90;;;;;;5066133;28;20036;-86
2023/01/26 09:43:11;;;;;;;35.22;5.85;;;4.70;99.90;;;;;;5089848;28;20056;-88
2023/01/26 09:46:11;;;;;;;35.80;5.07;;;4.70;99.90;;;;;;5095246;28;20040;-88
2023/01/26 09:49:01;;;;;;;25.95;4.80;;;4.80;99.90;;;;;;5046762;28;20060;-90
2023/01/26 09:51:38;;;;;;;37.50;5.18;;;4.70;99.90;;;;;;5078507;28;20040;-89
2023/01/26 09:54:26;;;;;;;37.10;5.55;;;4.80;99.90;;;;;;5075828;27;20040;-89
2023/01/26 09:56:54;;;;;;;32.13;4.20;;;4.90;99.90;;;;;;5103750;28;20039;-90
2023/01/26 09:59:28;;;;;;;36.22;4.80;;;5.30;99.90;;;;;;5069269;28;20384;-88
2023/01/26 10:02:16;;;;;;;31.65;5.13;;;7.00;99.90;;;;;;5094423;27;20094;-89
2023/01/26 10:04:45;;;;;;;29.58;5.25;;;5.10;99.90;;;;;;5095886;28;20070;-88
2023/01/26 10:07:13;;;;;;;31.02;5.18;;;6.50;99.90;;;;;;5088317;28;20048;-89
2023/01/26 10:09:43;;;;;;;26.50;4.43;;;5.40;99.90;;;;;;5082612;28;20396;-87
2023/01/26 10:12:33;;;;;;;25.00;4.05;;;5.50;99.90;;;;;;5075294;28;20496;-88
2023/01/26 10:15:26;;;;;;;35.85;4.97;;;5.60;99.90;;;;;;5101571;28;20051;-89
2023/01/26 10:17:53;;;;;;;;;;;7.00;99.90;;;;;;5092954;28;20044;-84
2023/01/26 10:20:41;;;;;;;31.55;4.72;;;7.10;99.90;;;;;;5097228;28;19916;-86
2023/01/26 10:23:17;;;;;;;28.95;4.35;;;6.00;99.90;;;;;;5093237;28;20040;-86
2023/01/26 10:25:47;;;;;;;26.00;4.50;;;6.20;99.90;;;;;;5096948;28;20404;-88
2023/01/26 10:28:17;;;;;;;24.73;3.95;;;6.20;99.90;;;;;;5095668;28;20080;-87
2023/01/26 10:30:46;;;;;;;27.35;4.20;;;6.30;99.90;;;;;;5094593;28;21171;-88
2023/01/26 10:33:20;;;;;;;28.55;4.95;;;6.40;99.90;;;;;;5079149;28;20043;-86
2023/01/26 10:35:46;;;;;;;21.55;3.92;;;7.30;99.90;;;;;;5074828;28;20492;-87
2023/01/26 10:38:37;;;;;;;30.67;5.43;;;6.60;99.90;;;;;;5052160;28;20116;-88
2023/01/26 10:41:24;;;;;;;25.88;4.00;;;6.60;99.90;;;;;;5092176;28;20051;-88
2023/01/26 10:43:59;;;;;;;26.63;4.88;;;7.00;99.90;;;;;;5099570;27;20032;-88
2023/01/26 10:46:39;;;;;;;20.10;3.60;;;6.90;99.90;;;;;;5097534;27;20044;-88
2023/01/26 10:49:08;;;;;;;27.63;4.20;;;8.10;99.90;;;;;;5097248;27;20054;-87
2023/01/26 10:51:39;;;;;;;24.60;4.05;;;7.00;99.90;;;;;;5071538;28;20496;-87
2023/01/26 10:54:13;;;;;;;23.40;4.18;;;7.20;99.90;;;;;;5080376;28;20040;-87
2023/01/26 10:56:47;;;;;;;26.35;4.45;;;7.60;99.90;;;;;;5087808;28;21569;-86
2023/01/26 10:59:42;;;;;;;21.77;4.43;;;7.20;99.90;;;;;;5101015;27;20106;-88
2023/01/26 11:02:11;;;;;;;26.63;4.25;;;8.10;99.90;;;;;;5075591;28;20043;-85
2023/01/26 11:04:38;;;;;;;27.83;4.28;;;7.20;99.90;;;;;;5074536;28;20044;-85
2023/01/26 11:07:27;;;;;;;28.95;4.57;;;7.10;99.90;;;;;;5091524;28;20143;-88
2023/01/26 11:09:54;;;;;;;25.52;4.40;;;7.10;99.90;;;;;;5099425;28;20036;-88
2023/01/26 11:12:23;;;;;;;25.00;4.18;;;7.90;99.90;;;;;;5071788;28;20466;-87
2023/01/26 11:15:01;;;;;;;22.67;4.03;;;7.10;99.90;;;;;;5077308;28;20102;-89
2023/01/26 11:17:37;;;;;;;25.33;4.25;;;8.20;99.90;;;;;;5080911;28;20118;-88
2023/01/26 11:20:47;;;;;;;21.77;4.07;;;7.20;99.90;;;;;;5093174;28;20035;-89
2023/01/26 11:23:22;;;;;;;25.63;3.83;;;7.30;99.90;;;;;;4984650;28;20713;-86
2023/01/26 11:26:05;;;;;;;23.95;4.40;;;7.40;99.90;;;;;;5002887;28;20046;-89
2023/01/26 11:28:36;;;;;;;22.50;4.88;;;7.50;99.90;;;;;;5047235;28;20050;-89
2023/01/26 11:31:14;;;;;;;22.10;3.88;;;7.60;99.90;;;;;;5078506;28;20058;-87
2023/01/26 11:33:52;;;;;;;22.42;3.85;;;7.70;99.90;;;;;;5077199;28;20066;-86
2023/01/26 11:36:25;;;;;;;16.85;3.42;;;7.80;99.90;;;;;;5086739;27;20507;-88
2023/01/26 11:39:13;;;;;;;19.55;3.30;;;8.00;99.90;;;;;;5096258;28;20036;-87
2023/01/26 11:41:48;;;;;;;19.13;3.42;;;7.80;99.90;;;;;;5097932;27;20051;-88
2023/01/26 11:44:17;;;;;;;17.55;3.17;;;7.70;99.90;;;;;;5091641;28;20130;-88
2023/01/26 11:47:24;;;;;;;13.43;2.53;;;7.50;99.90;;;;;;5097586;27;20083;-89
2023/01/26 11:49:58;;;;;;;13.07;2.55;;;7.50;99.90;;;;;;5097047;28;20043;-88
2023/01/26 11:52:45;;;;;;;15.30;3.03;;;7.30;99.90;;;;;;5078545;28;20035;-88
2023/01/26 11:55:47;;;;;;;14.23;2.40;;;7.80;99.90;;;;;;5091779;27;20131;-88
2023/01/26 11:58:40;;;;;;;17.55;2.95;;;7.20;99.90;;;;;;5071423;28;20489;-89
2023/01/26 12:01:28;;;;;;;18.97;3.53;;;8.30;99.90;;;;;;5096635;28;20044;-86
2023/01/26 12:03:55;;;;;;;16.83;2.83;;;7.20;99.90;;;;;;5052760;28;20099;-85
2023/01/26 12:06:39;;;;;;;16.55;2.75;;;7.50;99.90;;;;;;5063866;28;20134;-87
2023/01/26 12:09:10;;;;;;;16.30;2.92;;;7.30;99.90;;;;;;5079602;28;20040;-87
2023/01/26 12:11:45;;;;;;;20.10;3.25;;;7.30;99.90;;;;;;5073558;28;20031;-88
2023/01/26 12:14:15;;;;;;;16.70;2.80;;;7.30;99.90;;;;;;5075573;28;20040;-87
2023/01/26 12:16:55;;;;;;;18.17;3.08;;;8.60;99.90;;;;;;5076979;28;20036;-86
2023/01/26 12:19:25;;;;;;;18.48;3.55;;;7.40;99.90;;;;;;5078797;28;20104;-87
2023/01/26 12:21:57;;;;;;;16.50;2.88;;;7.60;99.90;;;;;;5094936;28;20051;-87
2023/01/26 12:24:40;;;;;;;17.30;3.33;;;7.90;99.90;;;;;;5087496;28;20065;-87
2023/01/26 12:27:15;;;;;;;16.30;3.38;;;7.50;99.90;;;;;;5089079;28;20048;-86
2023/01/26 12:29:51;;;;;;;16.98;3.08;;;7.60;99.90;;;;;;5094314;28;20040;-87
2023/01/26 12:32:17;;;;;;;18.65;3.00;;;7.70;99.90;;;;;;5098077;28;20503;-87
2023/01/26 12:34:43;;;;;;;14.68;3.20;;;7.70;99.90;;;;;;5066565;28;20036;-87
2023/01/26 12:37:28;;;;;;;15.02;2.72;;;7.60;99.90;;;;;;5093982;28;20031;-87
2023/01/26 12:40:08;;;;;;;18.83;2.85;;;8.20;99.90;;;;;;5084828;28;20089;-87
2023/01/26 12:43:07;;;;;;;15.73;2.90;;;7.70;99.90;;;;;;5076604;28;20143;-87
2023/01/26 12:45:39;;;;;;;16.55;3.30;;;7.70;99.90;;;;;;5069328;28;20492;-87
2023/01/26 12:48:19;;;;;;;19.60;3.03;;;8.40;99.90;;;;;;5077153;28;20075;-87
2023/01/26 12:50:59;;;;;;;15.25;3.03;;;7.60;99.90;;;;;;5074054;28;21124;-88
2023/01/26 12:53:33;;;;;;;19.17;3.20;;;7.60;99.90;;;;;;5076330;28;20097;-87
2023/01/26 12:56:14;;;;;;;16.92;3.17;;;8.10;99.90;;;;;;5074172;28;20116;-87
2023/01/26 12:58:46;;;;;;;15.00;3.03;;;7.50;99.90;;;;;;5093382;28;20031;-87
2023/01/26 13:01:15;;;;;;;15.80;3.15;;;7.50;99.90;;;;;;5097789;28;20127;-90
2023/01/26 13:03:55;;;;;;;13.82;2.83;;;7.50;99.90;;;;;;5083098;28;20069;-88
2023/01/26 13:06:26;;;;;;;13.10;2.67;;;7.50;99.90;;;;;;5076074;28;20052;-88
2023/01/26 13:09:22;;;;;;;16.08;3.28;;;8.80;99.90;;;;;;5085321;28;20086;-88
2023/01/26 13:11:54;;;;;;;12.50;2.63;;;7.40;99.90;;;;;;5100752;28;20097;-87
2023/01/26 13:14:37;;;;;;;14.45;2.75;;;7.60;99.90;;;;;;5087329;28;20112;-88
2023/01/26 13:17:15;;;;;;;17.83;2.95;;;7.70;99.90;;;;;;5092926;27;20131;-88
2023/01/26 13:19:43;;;;;;;11.07;2.15;;;7.80;99.90;;;;;;5101902;28;20044;-87
2023/01/26 13:22:24;;;;;;;11.82;2.50;;;7.70;99.90;;;;;;5097290;28;20040;-91
2023/01/26 13:24:56;;;;;;;14.65;3.33;;;7.70;99.90;;;;;;5080040;28;20039;-89
2023/01/26 13:27:36;;;;;;;12.05;2.58;;;7.70;99.90;;;;;;5091589;27;20512;-91
2023/01/26 13:30:23;;;;;;;13.63;2.17;;;7.70;99.90;;;;;;5085482;28;20044;-89
2023/01/26 13:32:48;;;;;;;9.02;2.20;;;7.60;99.90;;;;;;5100499;28;20071;-89
2023/01/26 13:35:18;;;;;;;12.52;2.38;;;7.50;99.90;;;;;;5098690;28;20078;-89
2023/01/26 13:37:58;;;;;;;11.50;2.40;;;7.60;99.90;;;;;;5078540;28;20119;-90
2023/01/26 13:40:34;;;;;;;12.20;2.55;;;6.90;99.90;;;;;;5081604;28;20054;-89
2023/01/26 13:43:33;;;;;;;11.45;2.50;;;7.60;99.90;;;;;;5104406;28;20101;-89
2023/01/26 13:46:17;;;;;;;10.55;2.25;;;7.50;99.90;;;;;;5080421;28;20047;-89
2023/01/26 13:48:53;;;;;;;10.68;2.65;;;5.90;99.90;;;;;;5091435;28;20035;-87
2023/01/26 13:51:29;;;;;;;11.07;1.83;;;7.40;99.90;;;;;;5081949;28;20035;-87
2023/01/26 13:54:22;;;;;;;15.80;3.03;;;7.10;99.90;;;;;;5080010;28;20040;-88
2023/01/26 13:57:06;;;;;;;13.07;2.30;;;7.40;99.90;;;;;;5074275;28;20028;-89
2023/01/26 13:59:51;;;;;;;13.25;2.22;;;7.40;99.90;;;;;;5076675;28;20036;-92
2023/01/26 14:02:25;;;;;;;14.75;2.50;;;7.30;99.90;;;;;;5079567;28;20044;-89
2023/01/26 14:04:54;;;;;;;15.73;2.40;;;7.30;99.90;;;;;;5105982;28;20083;-89
2023/01/26 14:07:34;;;;;;;11.07;2.42;;;7.30;99.90;;;;;;5097745;27;20075;-88
2023/01/26 14:10:01;;;;;;;14.25;2.42;;;;;;;;;;5098615;28;20078;-87
2023/01/26 14:12:32;;;;;;;15.30;2.75;;;7.30;99.90;;;;;;5081655;28;20426;-89